sensor_id;sensor_type;location;lat;lon;timestamp;temperature;humidity
6106;DHT22;3083;51.508;7.966;2023-10-13T00:02:09;16.70;99.90
6106;DHT22;3083;51.508;7.966;2023-10-13T00:04:36;16.70;99.90
6106;DHT22;3083;51.508;7.966;2023-10-13T00:07:03;16.70;99.90
6106;DHT22;3083;51.508;7.966;2023-10-13T00:09:35;16.70;99.90
6106;DHT22;3083;51.508;7.966;2023-10-13T00:12:04;16.70;99.90
6106;DHT22;3083;51.508;7.966;2023-10-13T00:14:33;16.70;99.90
6106;DHT22;3083;51.508;7.966;2023-10-13T00:17:00;16.70;99.90
6106;DHT22;3083;51.508;7.966;2023-10-13T00:19:29;16.80;99.90
6106;DHT22;3083;51.508;7.966;2023-10-13T00:22:04;16.80;99.90
6106;DHT22;3083;51.508;7.966;2023-10-13T00:24:37;16.80;99.90
6106;DHT22;3083;51.508;7.966;2023-10-13T00:27:10;16.80;99.90
6106;DHT22;3083;51.508;7.966;2023-10-13T00:29:55;16.80;99.90
6106;DHT22;3083;51.508;7.966;2023-10-13T00:32:42;16.80;99.90
6106;DHT22;3083;51.508;7.966;2023-10-13T00:35:10;16.70;99.90
6106;DHT22;3083;51.508;7.966;2023-10-13T00:37:38;16.70;99.90
6106;DHT22;3083;51.508;7.966;2023-10-13T00:40:11;16.70;99.90
6106;DHT22;3083;51.508;7.966;2023-10-13T00:43:03;16.70;99.90
6106;DHT22;3083;51.508;7.966;2023-10-13T00:45:53;16.80;99.90
6106;DHT22;3083;51.508;7.966;2023-10-13T00:48:23;16.70;99.90
6106;DHT22;3083;51.508;7.966;2023-10-13T00:50:56;16.80;99.90
6106;DHT22;3083;51.508;7.966;2023-10-13T00:53:22;16.80;99.90
6106;DHT22;3083;51.508;7.966;2023-10-13T00:55:52;16.80;99.90
6106;DHT22;3083;51.508;7.966;2023-10-13T00:58:22;16.80;99.90
6106;DHT22;3083;51.508;7.966;2023-10-13T01:00:50;16.80;99.90
6106;DHT22;3083;51.508;7.966;2023-10-13T01:03:23;16.80;99.90
6106;DHT22;3083;51.508;7.966;2023-10-13T01:05:53;16.80;99.90
6106;DHT22;3083;51.508;7.966;2023-10-13T01:08:31;16.80;99.90
6106;DHT22;3083;51.508;7.966;2023-10-13T01:11:02;16.80;99.90
6106;DHT22;3083;51.508;7.966;2023-10-13T01:13:28;16.80;99.90
6106;DHT22;3083;51.508;7.966;2023-10-13T01:15:56;16.80;99.90
6106;DHT22;3083;51.508;7.966;2023-10-13T01:18:22;16.80;99.90
6106;DHT22;3083;51.508;7.966;2023-10-13T01:20:51;16.80;99.90
6106;DHT22;3083;51.508;7.966;2023-10-13T01:23:20;16.80;99.90
6106;DHT22;3083;51.508;7.966;2023-10-13T01:25:50;16.80;99.90
6106;DHT22;3083;51.508;7.966;2023-10-13T01:28:17;16.80;99.90
6106;DHT22;3083;51.508;7.966;2023-10-13T01:30:43;16.80;99.90
6106;DHT22;3083;51.508;7.966;2023-10-13T01:33:15;16.90;99.90
6106;DHT22;3083;51.508;7.966;2023-10-13T01:35:41;16.90;99.90
6106;DHT22;3083;51.508;7.966;2023-10-13T01:38:13;16.90;99.90
6106;DHT22;3083;51.508;7.966;2023-10-13T01:40:40;16.90;99.90
6106;DHT22;3083;51.508;7.966;2023-10-13T01:43:09;16.90;99.90
6106;DHT22;3083;51.508;7.966;2023-10-13T01:45:37;17.00;99.90
6106;DHT22;3083;51.508;7.966;2023-10-13T01:48:15;17.00;99.90
6106;DHT22;3083;51.508;7.966;2023-10-13T01:50:43;17.00;99.90
6106;DHT22;3083;51.508;7.966;2023-10-13T01:53:13;17.00;99.90
6106;DHT22;3083;51.508;7.966;2023-10-13T01:55:41;17.00;99.90
6106;DHT22;3083;51.508;7.966;2023-10-13T01:58:10;17.00;99.90
6106;DHT22;3083;51.508;7.966;2023-10-13T02:00:41;17.00;99.90
6106;DHT22;3083;51.508;7.966;2023-10-13T02:03:08;17.00;99.90
6106;DHT22;3083;51.508;7.966;2023-10-13T02:05:40;17.00;99.90
6106;DHT22;3083;51.508;7.966;2023-10-13T02:08:13;17.00;99.90
6106;DHT22;3083;51.508;7.966;2023-10-13T02:10:45;17.00;99.90
6106;DHT22;3083;51.508;7.966;2023-10-13T02:13:13;17.00;99.90
6106;DHT22;3083;51.508;7.966;2023-10-13T02:15:41;17.00;99.90
6106;DHT22;3083;51.508;7.966;2023-10-13T02:18:10;17.10;99.90
6106;DHT22;3083;51.508;7.966;2023-10-13T02:20:36;17.10;99.90
6106;DHT22;3083;51.508;7.966;2023-10-13T02:23:09;17.00;99.90
6106;DHT22;3083;51.508;7.966;2023-10-13T02:25:36;17.00;99.90
6106;DHT22;3083;51.508;7.966;2023-10-13T02:28:11;17.10;99.90
6106;DHT22;3083;51.508;7.966;2023-10-13T02:30:39;17.10;99.90
6106;DHT22;3083;51.508;7.966;2023-10-13T02:33:11;17.10;99.90
6106;DHT22;3083;51.508;7.966;2023-10-13T02:35:37;17.10;99.90
6106;DHT22;3083;51.508;7.966;2023-10-13T02:38:09;17.10;99.90
6106;DHT22;3083;51.508;7.966;2023-10-13T02:40:38;17.10;99.90
6106;DHT22;3083;51.508;7.966;2023-10-13T02:43:05;17.20;99.90
6106;DHT22;3083;51.508;7.966;2023-10-13T02:45:33;17.20;99.90
6106;DHT22;3083;51.508;7.966;2023-10-13T02:48:03;17.20;99.90
6106;DHT22;3083;51.508;7.966;2023-10-13T02:50:37;17.20;99.90
6106;DHT22;3083;51.508;7.966;2023-10-13T02:53:08;17.20;99.90
6106;DHT22;3083;51.508;7.966;2023-10-13T02:55:38;17.20;99.90
6106;DHT22;3083;51.508;7.966;2023-10-13T02:58:05;17.20;99.90
6106;DHT22;3083;51.508;7.966;2023-10-13T03:00:35;17.20;99.90
6106;DHT22;3083;51.508;7.966;2023-10-13T03:03:06;17.20;99.90
6106;DHT22;3083;51.508;7.966;2023-10-13T03:05:34;17.20;99.90
6106;DHT22;3083;51.508;7.966;2023-10-13T03:08:05;17.10;99.90
6106;DHT22;3083;51.508;7.966;2023-10-13T03:10:31;17.20;99.90
6106;DHT22;3083;51.508;7.966;2023-10-13T03:12:59;17.20;99.90
6106;DHT22;3083;51.508;7.966;2023-10-13T03:15:24;17.20;99.90
6106;DHT22;3083;51.508;7.966;2023-10-13T03:17:57;17.20;99.90
6106;DHT22;3083;51.508;7.966;2023-10-13T03:20:24;17.20;99.90
6106;DHT22;3083;51.508;7.966;2023-10-13T03:22:57;17.20;99.90
6106;DHT22;3083;51.508;7.966;2023-10-13T03:25:23;17.20;99.90
6106;DHT22;3083;51.508;7.966;2023-10-13T03:27:55;17.20;99.90
6106;DHT22;3083;51.508;7.966;2023-10-13T03:30:27;17.20;99.90
6106;DHT22;3083;51.508;7.966;2023-10-13T03:33:03;17.20;99.90
6106;DHT22;3083;51.508;7.966;2023-10-13T03:35:34;17.20;99.90
6106;DHT22;3083;51.508;7.966;2023-10-13T03:38:07;17.20;99.90
6106;DHT22;3083;51.508;7.966;2023-10-13T03:40:44;17.20;99.90
6106;DHT22;3083;51.508;7.966;2023-10-13T03:43:32;17.20;99.90
6106;DHT22;3083;51.508;7.966;2023-10-13T03:46:10;17.20;99.90
6106;DHT22;3083;51.508;7.966;2023-10-13T03:48:38;17.20;99.90
6106;DHT22;3083;51.508;7.966;2023-10-13T03:51:17;17.20;99.90
6106;DHT22;3083;51.508;7.966;2023-10-13T03:53:44;17.20;99.90
6106;DHT22;3083;51.508;7.966;2023-10-13T03:56:18;17.20;99.90
6106;DHT22;3083;51.508;7.966;2023-10-13T03:58:52;17.20;99.90
6106;DHT22;3083;51.508;7.966;2023-10-13T04:01:20;17.20;99.90
6106;DHT22;3083;51.508;7.966;2023-10-13T04:03:58;17.10;99.90
6106;DHT22;3083;51.508;7.966;2023-10-13T04:06:30;17.10;99.90
6106;DHT22;3083;51.508;7.966;2023-10-13T04:09:23;17.10;99.90
6106;DHT22;3083;51.508;7.966;2023-10-13T04:12:08;17.10;99.90
6106;DHT22;3083;51.508;7.966;2023-10-13T04:15:07;17.00;99.90
6106;DHT22;3083;51.508;7.966;2023-10-13T04:17:52;17.00;99.90
6106;DHT22;3083;51.508;7.966;2023-10-13T04:20:19;17.00;99.90
6106;DHT22;3083;51.508;7.966;2023-10-13T04:22:58;17.00;99.90
6106;DHT22;3083;51.508;7.966;2023-10-13T04:25:52;17.00;99.90
6106;DHT22;3083;51.508;7.966;2023-10-13T04:28:34;16.90;99.90
6106;DHT22;3083;51.508;7.966;2023-10-13T04:31:03;16.90;99.90
6106;DHT22;3083;51.508;7.966;2023-10-13T04:33:37;16.90;99.90
6106;DHT22;3083;51.508;7.966;2023-10-13T04:36:17;16.80;99.90
6106;DHT22;3083;51.508;7.966;2023-10-13T04:38:49;16.90;99.90
6106;DHT22;3083;51.508;7.966;2023-10-13T04:41:24;16.90;99.90
6106;DHT22;3083;51.508;7.966;2023-10-13T04:43:50;16.90;99.90
6106;DHT22;3083;51.508;7.966;2023-10-13T04:46:30;16.90;99.90
6106;DHT22;3083;51.508;7.966;2023-10-13T04:49:19;16.90;99.90
6106;DHT22;3083;51.508;7.966;2023-10-13T04:51:55;16.90;99.90
6106;DHT22;3083;51.508;7.966;2023-10-13T04:54:39;16.90;99.90
6106;DHT22;3083;51.508;7.966;2023-10-13T04:57:17;16.90;99.90
6106;DHT22;3083;51.508;7.966;2023-10-13T04:59:50;16.90;99.90
6106;DHT22;3083;51.508;7.966;2023-10-13T05:02:35;17.00;99.90
6106;DHT22;3083;51.508;7.966;2023-10-13T05:05:43;17.00;99.90
6106;DHT22;3083;51.508;7.966;2023-10-13T05:08:36;17.00;99.90
6106;DHT22;3083;51.508;7.966;2023-10-13T05:11:20;17.00;99.90
6106;DHT22;3083;51.508;7.966;2023-10-13T05:14:06;17.00;99.90
6106;DHT22;3083;51.508;7.966;2023-10-13T05:16:50;17.00;99.90
6106;DHT22;3083;51.508;7.966;2023-10-13T05:19:34;17.10;99.90
6106;DHT22;3083;51.508;7.966;2023-10-13T05:22:18;17.10;99.90
6106;DHT22;3083;51.508;7.966;2023-10-13T05:25:03;17.10;99.90
6106;DHT22;3083;51.508;7.966;2023-10-13T05:27:48;17.10;99.90
6106;DHT22;3083;51.508;7.966;2023-10-13T05:30:33;17.10;99.90
6106;DHT22;3083;51.508;7.966;2023-10-13T05:33:17;17.20;99.90
6106;DHT22;3083;51.508;7.966;2023-10-13T05:36:02;17.20;99.90
6106;DHT22;3083;51.508;7.966;2023-10-13T05:38:46;17.20;99.90
6106;DHT22;3083;51.508;7.966;2023-10-13T05:41:30;17.20;99.90
6106;DHT22;3083;51.508;7.966;2023-10-13T05:44:15;17.20;99.90
6106;DHT22;3083;51.508;7.966;2023-10-13T05:47:04;17.30;99.90
6106;DHT22;3083;51.508;7.966;2023-10-13T05:50:09;17.30;99.90
6106;DHT22;3083;51.508;7.966;2023-10-13T05:52:54;17.30;99.90
6106;DHT22;3083;51.508;7.966;2023-10-13T05:55:39;17.30;99.90
6106;DHT22;3083;51.508;7.966;2023-10-13T05:58:23;17.30;99.90
6106;DHT22;3083;51.508;7.966;2023-10-13T06:01:12;17.30;99.90
6106;DHT22;3083;51.508;7.966;2023-10-13T06:03:57;17.30;99.90
6106;DHT22;3083;51.508;7.966;2023-10-13T06:06:42;17.30;99.90
6106;DHT22;3083;51.508;7.966;2023-10-13T06:09:26;17.40;99.90
6106;DHT22;3083;51.508;7.966;2023-10-13T06:12:10;17.40;99.90
6106;DHT22;3083;51.508;7.966;2023-10-13T06:14:54;17.40;99.90
6106;DHT22;3083;51.508;7.966;2023-10-13T06:17:38;17.40;99.90
6106;DHT22;3083;51.508;7.966;2023-10-13T06:20:24;17.40;99.90
6106;DHT22;3083;51.508;7.966;2023-10-13T06:23:08;17.40;99.90
6106;DHT22;3083;51.508;7.966;2023-10-13T06:25:53;17.40;99.90
6106;DHT22;3083;51.508;7.966;2023-10-13T06:28:38;17.50;99.90
6106;DHT22;3083;51.508;7.966;2023-10-13T06:31:09;17.50;99.90
6106;DHT22;3083;51.508;7.966;2023-10-13T06:33:46;17.50;99.90
6106;DHT22;3083;51.508;7.966;2023-10-13T06:36:15;17.50;99.90
6106;DHT22;3083;51.508;7.966;2023-10-13T06:38:43;17.50;99.90
6106;DHT22;3083;51.508;7.966;2023-10-13T06:41:18;17.50;99.90
6106;DHT22;3083;51.508;7.966;2023-10-13T06:43:55;17.50;99.90
6106;DHT22;3083;51.508;7.966;2023-10-13T06:46:28;17.60;99.90
6106;DHT22;3083;51.508;7.966;2023-10-13T06:48:59;17.60;99.90
6106;DHT22;3083;51.508;7.966;2023-10-13T06:51:29;17.60;99.90
6106;DHT22;3083;51.508;7.966;2023-10-13T06:54:04;17.60;99.90
6106;DHT22;3083;51.508;7.966;2023-10-13T06:56:35;17.60;99.90
6106;DHT22;3083;51.508;7.966;2023-10-13T06:59:05;17.60;99.90
6106;DHT22;3083;51.508;7.966;2023-10-13T07:01:32;17.60;99.90
6106;DHT22;3083;51.508;7.966;2023-10-13T07:04:04;17.60;99.90
6106;DHT22;3083;51.508;7.966;2023-10-13T07:06:40;17.60;99.90
6106;DHT22;3083;51.508;7.966;2023-10-13T07:09:13;17.60;99.90
6106;DHT22;3083;51.508;7.966;2023-10-13T07:12:04;17.70;99.90
6106;DHT22;3083;51.508;7.966;2023-10-13T07:14:33;17.70;99.90
6106;DHT22;3083;51.508;7.966;2023-10-13T07:17:02;17.70;99.90
6106;DHT22;3083;51.508;7.966;2023-10-13T07:19:30;17.70;99.90
6106;DHT22;3083;51.508;7.966;2023-10-13T07:22:01;17.70;99.90
6106;DHT22;3083;51.508;7.966;2023-10-13T07:24:45;17.80;99.90
6106;DHT22;3083;51.508;7.966;2023-10-13T07:27:14;17.80;99.90
6106;DHT22;3083;51.508;7.966;2023-10-13T07:29:48;17.80;99.90
6106;DHT22;3083;51.508;7.966;2023-10-13T07:32:21;17.80;99.90
6106;DHT22;3083;51.508;7.966;2023-10-13T07:34:52;17.90;99.90
6106;DHT22;3083;51.508;7.966;2023-10-13T07:37:22;17.90;99.90
6106;DHT22;3083;51.508;7.966;2023-10-13T07:39:53;18.00;99.90
6106;DHT22;3083;51.508;7.966;2023-10-13T07:42:23;18.00;99.90
6106;DHT22;3083;51.508;7.966;2023-10-13T07:44:57;18.10;99.90
6106;DHT22;3083;51.508;7.966;2023-10-13T07:47:24;18.20;99.90
6106;DHT22;3083;51.508;7.966;2023-10-13T07:49:53;18.30;99.90
6106;DHT22;3083;51.508;7.966;2023-10-13T07:52:23;18.30;99.90
6106;DHT22;3083;51.508;7.966;2023-10-13T07:55:01;18.40;99.90
6106;DHT22;3083;51.508;7.966;2023-10-13T07:57:36;18.40;99.90
6106;DHT22;3083;51.508;7.966;2023-10-13T08:00:19;18.50;99.90
6106;DHT22;3083;51.508;7.966;2023-10-13T08:02:58;18.50;99.90
6106;DHT22;3083;51.508;7.966;2023-10-13T08:05:52;18.60;99.90
6106;DHT22;3083;51.508;7.966;2023-10-13T08:08:25;18.60;99.90
6106;DHT22;3083;51.508;7.966;2023-10-13T08:11:00;18.70;99.90
6106;DHT22;3083;51.508;7.966;2023-10-13T08:13:34;18.70;99.90
6106;DHT22;3083;51.508;7.966;2023-10-13T08:16:02;18.80;99.90
6106;DHT22;3083;51.508;7.966;2023-10-13T08:18:33;18.80;99.90
6106;DHT22;3083;51.508;7.966;2023-10-13T08:21:02;18.80;99.90
6106;DHT22;3083;51.508;7.966;2023-10-13T08:23:31;18.90;99.90
6106;DHT22;3083;51.508;7.966;2023-10-13T08:26:21;18.90;99.90
6106;DHT22;3083;51.508;7.966;2023-10-13T08:29:06;18.90;99.90
6106;DHT22;3083;51.508;7.966;2023-10-13T08:31:47;19.00;99.90
6106;DHT22;3083;51.508;7.966;2023-10-13T08:34:15;19.10;99.90
6106;DHT22;3083;51.508;7.966;2023-10-13T08:36:49;19.10;99.90
6106;DHT22;3083;51.508;7.966;2023-10-13T08:39:22;19.20;99.90
6106;DHT22;3083;51.508;7.966;2023-10-13T08:42:03;19.20;99.90
6106;DHT22;3083;51.508;7.966;2023-10-13T08:44:38;19.20;99.90
6106;DHT22;3083;51.508;7.966;2023-10-13T08:47:06;19.30;99.90
6106;DHT22;3083;51.508;7.966;2023-10-13T08:49:42;19.30;99.90
6106;DHT22;3083;51.508;7.966;2023-10-13T08:52:17;19.40;99.90
6106;DHT22;3083;51.508;7.966;2023-10-13T08:55:06;19.50;99.90
6106;DHT22;3083;51.508;7.966;2023-10-13T08:58:01;19.50;99.90
6106;DHT22;3083;51.508;7.966;2023-10-13T09:00:39;19.60;99.90
6106;DHT22;3083;51.508;7.966;2023-10-13T09:03:38;19.80;99.90
6106;DHT22;3083;51.508;7.966;2023-10-13T09:06:12;20.00;99.90
6106;DHT22;3083;51.508;7.966;2023-10-13T09:08:45;20.20;99.90
6106;DHT22;3083;51.508;7.966;2023-10-13T09:11:33;20.40;99.90
6106;DHT22;3083;51.508;7.966;2023-10-13T09:14:14;20.70;99.90
6106;DHT22;3083;51.508;7.966;2023-10-13T09:17:01;20.70;99.90
6106;DHT22;3083;51.508;7.966;2023-10-13T09:19:44;20.80;99.90
6106;DHT22;3083;51.508;7.966;2023-10-13T09:22:21;20.90;99.90
6106;DHT22;3083;51.508;7.966;2023-10-13T09:24:54;21.00;99.90
6106;DHT22;3083;51.508;7.966;2023-10-13T09:27:24;21.10;99.90
6106;DHT22;3083;51.508;7.966;2023-10-13T09:29:56;21.20;99.90
6106;DHT22;3083;51.508;7.966;2023-10-13T09:32:22;21.20;99.90
6106;DHT22;3083;51.508;7.966;2023-10-13T09:34:49;21.20;99.90
6106;DHT22;3083;51.508;7.966;2023-10-13T09:37:17;21.30;99.90
6106;DHT22;3083;51.508;7.966;2023-10-13T09:39:47;21.50;99.90
6106;DHT22;3083;51.508;7.966;2023-10-13T09:42:18;21.70;99.90
6106;DHT22;3083;51.508;7.966;2023-10-13T09:44:46;21.80;99.90
6106;DHT22;3083;51.508;7.966;2023-10-13T09:47:22;22.00;99.90
6106;DHT22;3083;51.508;7.966;2023-10-13T09:49:59;22.10;99.90
6106;DHT22;3083;51.508;7.966;2023-10-13T09:52:31;22.20;99.90
6106;DHT22;3083;51.508;7.966;2023-10-13T09:55:08;22.40;99.90
6106;DHT22;3083;51.508;7.966;2023-10-13T09:57:43;22.50;99.90
6106;DHT22;3083;51.508;7.966;2023-10-13T10:00:15;22.60;99.90
6106;DHT22;3083;51.508;7.966;2023-10-13T10:03:00;22.60;99.90
6106;DHT22;3083;51.508;7.966;2023-10-13T10:05:41;22.70;99.90
6106;DHT22;3083;51.508;7.966;2023-10-13T10:08:06;22.80;99.90
6106;DHT22;3083;51.508;7.966;2023-10-13T10:10:50;22.80;99.90
6106;DHT22;3083;51.508;7.966;2023-10-13T10:13:24;22.90;99.90
6106;DHT22;3083;51.508;7.966;2023-10-13T10:16:01;22.90;99.90
6106;DHT22;3083;51.508;7.966;2023-10-13T10:18:30;22.90;99.90
6106;DHT22;3083;51.508;7.966;2023-10-13T10:21:04;22.90;99.90
6106;DHT22;3083;51.508;7.966;2023-10-13T10:23:33;23.00;99.90
6106;DHT22;3083;51.508;7.966;2023-10-13T10:26:11;23.10;99.90
6106;DHT22;3083;51.508;7.966;2023-10-13T10:28:42;23.20;99.90
6106;DHT22;3083;51.508;7.966;2023-10-13T10:31:11;23.40;99.90
6106;DHT22;3083;51.508;7.966;2023-10-13T10:33:41;23.40;99.90
6106;DHT22;3083;51.508;7.966;2023-10-13T10:36:08;23.40;99.90
6106;DHT22;3083;51.508;7.966;2023-10-13T10:38:52;23.50;99.90
6106;DHT22;3083;51.508;7.966;2023-10-13T10:41:26;23.70;99.90
6106;DHT22;3083;51.508;7.966;2023-10-13T10:44:09;23.70;99.90
6106;DHT22;3083;51.508;7.966;2023-10-13T10:46:42;23.70;99.90
6106;DHT22;3083;51.508;7.966;2023-10-13T10:49:18;23.80;99.90
6106;DHT22;3083;51.508;7.966;2023-10-13T10:51:57;23.80;99.90
6106;DHT22;3083;51.508;7.966;2023-10-13T10:54:26;23.80;99.90
6106;DHT22;3083;51.508;7.966;2023-10-13T10:56:57;23.60;99.90
6106;DHT22;3083;51.508;7.966;2023-10-13T10:59:36;23.50;99.90
6106;DHT22;3083;51.508;7.966;2023-10-13T11:02:06;23.40;99.90
6106;DHT22;3083;51.508;7.966;2023-10-13T11:04:34;23.50;99.90
6106;DHT22;3083;51.508;7.966;2023-10-13T11:07:07;23.60;99.90
6106;DHT22;3083;51.508;7.966;2023-10-13T11:09:35;23.70;99.90
6106;DHT22;3083;51.508;7.966;2023-10-13T11:12:13;23.80;99.90
6106;DHT22;3083;51.508;7.966;2023-10-13T11:15:00;23.70;99.90
6106;DHT22;3083;51.508;7.966;2023-10-13T11:17:28;23.60;99.90
6106;DHT22;3083;51.508;7.966;2023-10-13T11:20:18;23.50;99.90
6106;DHT22;3083;51.508;7.966;2023-10-13T11:22:51;23.50;99.90
6106;DHT22;3083;51.508;7.966;2023-10-13T11:25:23;23.70;99.90
6106;DHT22;3083;51.508;7.966;2023-10-13T11:27:55;23.90;99.90
6106;DHT22;3083;51.508;7.966;2023-10-13T11:30:25;24.10;99.90
6106;DHT22;3083;51.508;7.966;2023-10-13T11:33:01;24.20;99.90
6106;DHT22;3083;51.508;7.966;2023-10-13T11:35:31;24.20;99.90
6106;DHT22;3083;51.508;7.966;2023-10-13T11:38:12;24.30;99.90
6106;DHT22;3083;51.508;7.966;2023-10-13T11:40:40;24.20;99.90
6106;DHT22;3083;51.508;7.966;2023-10-13T11:43:10;24.30;99.90
6106;DHT22;3083;51.508;7.966;2023-10-13T11:45:39;24.40;99.90
6106;DHT22;3083;51.508;7.966;2023-10-13T11:48:21;24.50;99.90
6106;DHT22;3083;51.508;7.966;2023-10-13T11:51:00;24.40;99.90
6106;DHT22;3083;51.508;7.966;2023-10-13T11:53:32;24.30;99.90
6106;DHT22;3083;51.508;7.966;2023-10-13T11:56:00;24.30;99.90
6106;DHT22;3083;51.508;7.966;2023-10-13T11:58:28;24.30;99.90
6106;DHT22;3083;51.508;7.966;2023-10-13T12:00:55;24.30;99.90
6106;DHT22;3083;51.508;7.966;2023-10-13T12:03:47;24.20;99.90
6106;DHT22;3083;51.508;7.966;2023-10-13T12:06:34;23.90;99.90
6106;DHT22;3083;51.508;7.966;2023-10-13T12:09:12;23.80;99.90
6106;DHT22;3083;51.508;7.966;2023-10-13T12:11:57;23.70;99.90
6106;DHT22;3083;51.508;7.966;2023-10-13T12:14:26;23.60;99.90
6106;DHT22;3083;51.508;7.966;2023-10-13T12:16:55;23.60;99.90
6106;DHT22;3083;51.508;7.966;2023-10-13T12:19:30;23.60;99.90
6106;DHT22;3083;51.508;7.966;2023-10-13T12:21:58;23.60;99.90
6106;DHT22;3083;51.508;7.966;2023-10-13T12:24:30;23.60;99.90
6106;DHT22;3083;51.508;7.966;2023-10-13T12:27:06;23.50;99.90
6106;DHT22;3083;51.508;7.966;2023-10-13T12:29:44;23.50;99.90
6106;DHT22;3083;51.508;7.966;2023-10-13T12:32:12;23.40;99.90
6106;DHT22;3083;51.508;7.966;2023-10-13T12:34:41;23.40;99.90
6106;DHT22;3083;51.508;7.966;2023-10-13T12:37:27;23.40;99.90
6106;DHT22;3083;51.508;7.966;2023-10-13T12:40:18;23.30;99.90
6106;DHT22;3083;51.508;7.966;2023-10-13T12:43:03;23.20;99.90
6106;DHT22;3083;51.508;7.966;2023-10-13T12:45:49;23.20;99.90
6106;DHT22;3083;51.508;7.966;2023-10-13T12:48:35;23.10;99.90
6106;DHT22;3083;51.508;7.966;2023-10-13T12:51:22;23.00;99.90
6106;DHT22;3083;51.508;7.966;2023-10-13T12:54:06;22.90;99.90
6106;DHT22;3083;51.508;7.966;2023-10-13T12:56:39;22.80;99.90
6106;DHT22;3083;51.508;7.966;2023-10-13T12:59:07;22.80;99.90
6106;DHT22;3083;51.508;7.966;2023-10-13T13:01:35;23.00;99.90
6106;DHT22;3083;51.508;7.966;2023-10-13T13:04:07;23.10;99.90
6106;DHT22;3083;51.508;7.966;2023-10-13T13:06:39;23.20;99.90
6106;DHT22;3083;51.508;7.966;2023-10-13T13:09:06;23.30;99.90
6106;DHT22;3083;51.508;7.966;2023-10-13T13:11:35;23.30;99.90
6106;DHT22;3083;51.508;7.966;2023-10-13T13:14:06;23.40;99.90
6106;DHT22;3083;51.508;7.966;2023-10-13T13:16:34;23.40;99.90
6106;DHT22;3083;51.508;7.966;2023-10-13T13:19:04;23.40;99.90
6106;DHT22;3083;51.508;7.966;2023-10-13T13:21:36;23.30;99.90
6106;DHT22;3083;51.508;7.966;2023-10-13T13:24:05;23.30;99.90
6106;DHT22;3083;51.508;7.966;2023-10-13T13:26:37;23.20;99.90
6106;DHT22;3083;51.508;7.966;2023-10-13T13:29:06;23.20;99.90
6106;DHT22;3083;51.508;7.966;2023-10-13T13:31:35;23.20;99.90
6106;DHT22;3083;51.508;7.966;2023-10-13T13:34:07;23.20;99.90
6106;DHT22;3083;51.508;7.966;2023-10-13T13:36:35;23.30;99.90
6106;DHT22;3083;51.508;7.966;2023-10-13T13:39:04;23.20;99.90
6106;DHT22;3083;51.508;7.966;2023-10-13T13:41:31;23.20;99.90
6106;DHT22;3083;51.508;7.966;2023-10-13T13:43:59;23.20;99.90
6106;DHT22;3083;51.508;7.966;2023-10-13T13:46:39;23.20;99.90
6106;DHT22;3083;51.508;7.966;2023-10-13T13:49:08;23.20;99.90
6106;DHT22;3083;51.508;7.966;2023-10-13T13:51:44;23.20;99.90
6106;DHT22;3083;51.508;7.966;2023-10-13T13:54:19;23.20;99.90
6106;DHT22;3083;51.508;7.966;2023-10-13T13:56:46;23.20;99.90
6106;DHT22;3083;51.508;7.966;2023-10-13T13:59:13;23.20;99.90
6106;DHT22;3083;51.508;7.966;2023-10-13T14:01:45;23.20;99.90
6106;DHT22;3083;51.508;7.966;2023-10-13T14:04:13;23.20;99.90
6106;DHT22;3083;51.508;7.966;2023-10-13T14:06:44;23.20;99.90
6106;DHT22;3083;51.508;7.966;2023-10-13T14:09:11;23.20;99.90
6106;DHT22;3083;51.508;7.966;2023-10-13T14:11:43;23.10;99.90
6106;DHT22;3083;51.508;7.966;2023-10-13T14:14:28;23.10;99.90
6106;DHT22;3083;51.508;7.966;2023-10-13T14:16:59;23.00;99.90
6106;DHT22;3083;51.508;7.966;2023-10-13T14:19:33;23.00;99.90
6106;DHT22;3083;51.508;7.966;2023-10-13T14:22:00;22.90;99.90
6106;DHT22;3083;51.508;7.966;2023-10-13T14:24:32;22.90;99.90
6106;DHT22;3083;51.508;7.966;2023-10-13T14:27:02;22.90;99.90
6106;DHT22;3083;51.508;7.966;2023-10-13T14:29:34;22.80;99.90
6106;DHT22;3083;51.508;7.966;2023-10-13T14:32:06;22.80;99.90
6106;DHT22;3083;51.508;7.966;2023-10-13T14:34:38;22.70;99.90
6106;DHT22;3083;51.508;7.966;2023-10-13T14:37:05;22.70;99.90
6106;DHT22;3083;51.508;7.966;2023-10-13T14:39:32;22.70;99.90
6106;DHT22;3083;51.508;7.966;2023-10-13T14:42:01;22.60;99.90
6106;DHT22;3083;51.508;7.966;2023-10-13T14:44:31;22.60;99.90
6106;DHT22;3083;51.508;7.966;2023-10-13T14:46:58;22.60;99.90
6106;DHT22;3083;51.508;7.966;2023-10-13T14:49:25;22.60;99.90
6106;DHT22;3083;51.508;7.966;2023-10-13T14:51:52;22.70;99.90
6106;DHT22;3083;51.508;7.966;2023-10-13T14:54:21;22.60;99.90
6106;DHT22;3083;51.508;7.966;2023-10-13T14:57:00;22.60;99.90
6106;DHT22;3083;51.508;7.966;2023-10-13T14:59:27;22.50;99.90
6106;DHT22;3083;51.508;7.966;2023-10-13T15:01:59;22.50;99.90
6106;DHT22;3083;51.508;7.966;2023-10-13T15:04:28;22.50;99.90
6106;DHT22;3083;51.508;7.966;2023-10-13T15:06:58;22.50;99.90
6106;DHT22;3083;51.508;7.966;2023-10-13T15:09:27;22.60;99.90
6106;DHT22;3083;51.508;7.966;2023-10-13T15:11:54;22.60;99.90
6106;DHT22;3083;51.508;7.966;2023-10-13T15:14:22;22.50;99.90
6106;DHT22;3083;51.508;7.966;2023-10-13T15:16:50;22.50;99.90
6106;DHT22;3083;51.508;7.966;2023-10-13T15:19:18;22.40;99.90
6106;DHT22;3083;51.508;7.966;2023-10-13T15:21:45;22.40;99.90
6106;DHT22;3083;51.508;7.966;2023-10-13T15:24:16;22.40;99.90
6106;DHT22;3083;51.508;7.966;2023-10-13T15:26:43;22.40;99.90
6106;DHT22;3083;51.508;7.966;2023-10-13T15:29:14;22.30;99.90
6106;DHT22;3083;51.508;7.966;2023-10-13T15:31:44;22.30;99.90
6106;DHT22;3083;51.508;7.966;2023-10-13T15:34:30;22.30;99.90
6106;DHT22;3083;51.508;7.966;2023-10-13T15:36:58;22.20;99.90
6106;DHT22;3083;51.508;7.966;2023-10-13T15:39:26;22.20;99.90
6106;DHT22;3083;51.508;7.966;2023-10-13T15:41:54;22.20;99.90
6106;DHT22;3083;51.508;7.966;2023-10-13T15:44:24;22.20;99.90
6106;DHT22;3083;51.508;7.966;2023-10-13T15:46:55;22.20;99.90
6106;DHT22;3083;51.508;7.966;2023-10-13T15:49:22;22.10;99.90
6106;DHT22;3083;51.508;7.966;2023-10-13T15:51:49;22.10;99.90
6106;DHT22;3083;51.508;7.966;2023-10-13T15:54:17;22.00;99.90
6106;DHT22;3083;51.508;7.966;2023-10-13T15:56:44;22.00;99.90
6106;DHT22;3083;51.508;7.966;2023-10-13T15:59:11;22.00;99.90
6106;DHT22;3083;51.508;7.966;2023-10-13T16:01:38;22.00;99.90
6106;DHT22;3083;51.508;7.966;2023-10-13T16:04:07;22.00;99.90
6106;DHT22;3083;51.508;7.966;2023-10-13T16:06:38;21.90;99.90
6106;DHT22;3083;51.508;7.966;2023-10-13T16:09:05;21.90;99.90
6106;DHT22;3083;51.508;7.966;2023-10-13T16:11:40;21.90;99.90
6106;DHT22;3083;51.508;7.966;2023-10-13T16:14:08;21.80;99.90
6106;DHT22;3083;51.508;7.966;2023-10-13T16:16:36;21.80;99.90
6106;DHT22;3083;51.508;7.966;2023-10-13T16:19:03;21.70;99.90
6106;DHT22;3083;51.508;7.966;2023-10-13T16:21:33;21.70;99.90
6106;DHT22;3083;51.508;7.966;2023-10-13T16:24:00;21.70;99.90
6106;DHT22;3083;51.508;7.966;2023-10-13T16:26:27;21.70;99.90
6106;DHT22;3083;51.508;7.966;2023-10-13T16:28:56;21.60;99.90
6106;DHT22;3083;51.508;7.966;2023-10-13T16:31:24;21.60;99.90
6106;DHT22;3083;51.508;7.966;2023-10-13T16:33:53;21.60;99.90
6106;DHT22;3083;51.508;7.966;2023-10-13T16:36:24;21.60;99.90
6106;DHT22;3083;51.508;7.966;2023-10-13T16:38:52;21.60;99.90
6106;DHT22;3083;51.508;7.966;2023-10-13T16:41:23;21.60;99.90
6106;DHT22;3083;51.508;7.966;2023-10-13T16:43:50;21.50;99.90
6106;DHT22;3083;51.508;7.966;2023-10-13T16:46:17;21.50;99.90